Time;durP1;ratioP1;P1;durP2;ratioP2;P2;SDS_P1;SDS_P2;PMS_P1;PMS_P2;Temp;Humidity;BMP_temperature;BMP_pressure;BME280_temperature;BME280_humidity;BME280_pressure;Samples;Min_cycle;Max_cycle;Signal;HPM_P1;HPM_P2
2023/04/04 00:02:52;;;;;;;8.10;4.00;;;;;;;-1.69;70.70;100837.95;218396;1256;139573;-63
2023/04/04 00:07:55;;;;;;;10.60;5.00;;;;;;;-1.76;70.82;100832.44;217751;1256;139964;-67
2023/04/04 00:12:58;;;;;;;5.30;4.50;;;;;;;-1.82;71.02;100830.85;217940;1256;141056;-68
2023/04/04 00:18:02;;;;;;;8.20;4.10;;;;;;;-1.85;71.18;100825.94;218302;1259;140393;-67
2023/04/04 00:23:06;;;;;;;9.50;4.10;;;;;;;-1.88;71.25;100819.69;217502;1261;141768;-63
2023/04/04 00:28:11;;;;;;;5.90;4.10;;;;;;;-1.95;71.13;100810.40;218782;1260;139783;-63
2023/04/04 00:33:15;;;;;;;4.60;4.20;;;;;;;-2.00;71.16;100807.71;217387;1262;139709;-63
2023/04/04 00:38:18;;;;;;;6.70;3.60;;;;;;;-2.05;71.39;100807.77;217759;1261;140333;-62
2023/04/04 00:43:22;;;;;;;9.30;4.50;;;;;;;-2.11;71.40;100800.08;218473;1257;139655;-65
2023/04/04 00:48:26;;;;;;;6.50;3.40;;;;;;;-2.17;71.55;100795.19;218293;1261;139903;-64
2023/04/04 00:53:31;;;;;;;7.10;3.90;;;;;;;-2.20;71.53;100795.27;218834;1261;139871;-63
2023/04/04 00:58:35;;;;;;;8.30;5.60;;;;;;;-2.23;71.61;100791.67;218117;1256;141939;-63
2023/04/04 01:03:39;;;;;;;4.00;3.20;;;;;;;-2.26;71.58;100786.92;217630;1257;139769;-65
2023/04/04 01:08:42;;;;;;;7.20;2.70;;;;;;;-2.27;71.80;100782.96;219488;1256;139944;-63
2023/04/04 01:13:47;;;;;;;5.10;2.80;;;;;;;-2.27;71.67;100780.70;219861;1259;141244;-64
2023/04/04 01:18:51;;;;;;;6.20;2.90;;;;;;;-2.28;71.58;100778.85;217547;1256;140093;-63
2023/04/04 01:24:02;;;;;;;3.30;2.60;;;;;;;-2.30;71.43;100770.10;220235;1257;140007;-63
2023/04/04 01:29:06;;;;;;;8.80;4.00;;;;;;;-2.30;71.33;100765.28;218036;1261;140876;-62
2023/04/04 01:34:36;;;;;;;4.60;2.30;;;;;;;-2.33;71.36;100760.62;218886;1256;141119;-62
2023/04/04 01:39:48;;;;;;;7.40;3.50;;;;;;;-2.36;71.41;100760.20;218194;1256;140243;-63
2023/04/04 01:44:55;;;;;;;16.90;4.40;;;;;;;-2.38;71.52;100760.69;218402;1261;139854;-64
2023/04/04 01:49:59;;;;;;;5.20;3.50;;;;;;;-2.37;71.37;100758.88;217564;1261;151584;-67
2023/04/04 01:55:03;;;;;;;7.90;3.30;;;;;;;-2.37;71.12;100758.16;219133;1259;141642;-64
2023/04/04 02:00:07;;;;;;;4.70;2.80;;;;;;;-2.40;71.07;100753.14;217947;1258;140239;-60
2023/04/04 02:05:11;;;;;;;7.70;3.10;;;;;;;-2.41;71.33;100750.44;218308;1260;140069;-64
2023/04/04 02:10:16;;;;;;;4.20;2.60;;;;;;;-2.39;71.35;100755.38;218467;1261;141392;-68
2023/04/04 02:15:18;;;;;;;5.90;3.60;;;;;;;-2.38;71.48;100753.84;217924;1260;139938;-64
2023/04/04 02:20:22;;;;;;;7.60;4.40;;;;;;;-2.36;71.57;100752.13;217927;1256;141336;-65
2023/04/04 02:25:25;;;;;;;7.90;4.10;;;;;;;-2.35;71.72;100745.46;217895;1262;140594;-64
2023/04/04 02:30:28;;;;;;;7.70;4.10;;;;;;;-2.35;71.89;100751.25;217773;1260;139572;-65
2023/04/04 02:35:32;;;;;;;8.20;3.50;;;;;;;-2.35;71.92;100748.59;217595;1257;140383;-63
2023/04/04 02:40:38;;;;;;;10.90;5.60;;;;;;;-2.37;72.07;100744.02;217744;1257;1173660;-63
2023/04/04 02:45:43;;;;;;;8.70;4.30;;;;;;;-2.33;72.20;100743.22;217558;1262;140685;-64
2023/04/04 02:50:48;;;;;;;4.90;3.80;;;;;;;-2.30;72.03;100742.61;219045;1256;140427;-64
2023/04/04 02:55:52;;;;;;;8.60;4.10;;;;;;;-2.26;72.11;100738.79;218842;1257;140285;-64
2023/04/04 03:00:56;;;;;;;8.80;4.70;;;;;;;-2.23;72.07;100738.06;218859;1256;140105;-64
2023/04/04 03:06:00;;;;;;;9.40;4.50;;;;;;;-2.20;72.23;100745.98;217961;1259;141662;-64
2023/04/04 03:11:03;;;;;;;17.80;5.50;;;;;;;-2.17;72.11;100748.72;218978;1260;139959;-65
2023/04/04 03:16:06;;;;;;;4.80;2.80;;;;;;;-2.17;72.18;100747.96;220235;1257;140186;-65
2023/04/04 03:21:08;;;;;;;7.20;3.20;;;;;;;-2.12;72.29;100745.98;219940;1257;139698;-65
2023/04/04 03:26:11;;;;;;;7.10;3.00;;;;;;;-2.07;72.35;100746.59;220286;1261;140829;-65
2023/04/04 03:31:15;;;;;;;3.90;3.20;;;;;;;-2.05;72.32;100742.70;220331;1257;139982;-64
2023/04/04 03:36:18;;;;;;;4.40;2.60;;;;;;;-2.02;72.19;100734.36;218267;1260;139799;-64
2023/04/04 03:41:22;;;;;;;6.60;2.80;;;;;;;-2.03;72.09;100732.67;219134;1260;139725;-64
2023/04/04 03:46:25;;;;;;;6.90;2.60;;;;;;;-2.05;72.15;100734.40;218463;1257;139805;-65
2023/04/04 03:51:29;;;;;;;6.40;2.60;;;;;;;-2.09;72.13;100737.17;217817;1262;142330;-64
2023/04/04 03:56:32;;;;;;;6.20;3.40;;;;;;;-2.14;72.20;100736.77;218535;1257;139769;-63
2023/04/04 04:01:35;;;;;;;6.10;4.70;;;;;;;-2.19;72.31;100740.11;218860;1261;140407;-64
2023/04/04 04:06:39;;;;;;;5.00;3.30;;;;;;;-2.19;72.64;100741.91;218254;1261;139783;-64
2023/04/04 04:11:43;;;;;;;10.30;3.50;;;;;;;-2.16;72.71;100740.77;218474;1261;140864;-64
2023/04/04 04:16:46;;;;;;;7.90;4.10;;;;;;;-2.13;72.68;100740.09;218009;1257;140896;-64
2023/04/04 04:21:49;;;;;;;5.10;2.80;;;;;;;-2.10;72.81;100732.94;217773;1262;139616;-64
2023/04/04 04:26:52;;;;;;;12.70;4.30;;;;;;;-2.07;72.85;100733.89;218287;1261;140640;-65
2023/04/04 04:31:55;;;;;;;6.50;3.60;;;;;;;-2.04;72.81;100737.59;219079;1260;139805;-63
2023/04/04 04:36:59;;;;;;;10.40;4.80;;;;;;;-1.98;72.84;100738.34;218547;1258;140002;-63
2023/04/04 04:42:04;;;;;;;7.60;3.30;;;;;;;-1.92;72.89;100736.14;217851;1257;140793;-64
2023/04/04 04:47:06;;;;;;;5.40;3.50;;;;;;;-1.86;72.83;100736.84;218242;1263;142113;-64
2023/04/04 04:52:12;;;;;;;4.60;2.60;;;;;;;-1.76;72.94;100731.95;218689;1257;140769;-64
2023/04/04 04:57:17;;;;;;;8.20;4.30;;;;;;;-1.69;72.81;100730.48;218253;1257;139470;-64
2023/04/04 05:02:19;;;;;;;7.60;3.20;;;;;;;-1.60;72.62;100735.14;218842;1257;139769;-65
2023/04/04 05:07:22;;;;;;;11.60;3.40;;;;;;;-1.48;72.70;100736.52;219966;1257;140109;-65
2023/04/04 05:12:26;;;;;;;10.20;3.90;;;;;;;-1.34;72.68;100736.64;218638;1258;140255;-66
2023/04/04 05:17:29;;;;;;;9.80;4.80;;;;;;;-1.23;72.53;100728.73;220266;1257;141065;-66
2023/04/04 05:22:32;;;;;;;5.60;3.60;;;;;;;-1.15;72.50;100724.45;220345;1256;141072;-65
2023/04/04 05:27:35;;;;;;;8.20;4.30;;;;;;;-1.03;72.38;100726.55;219190;1257;140352;-65
2023/04/04 05:32:39;;;;;;;6.30;3.10;;;;;;;-0.92;72.33;100731.18;217978;1258;142011;-65
2023/04/04 05:37:43;;;;;;;8.00;3.70;;;;;;;-0.73;72.15;100732.27;218457;1260;141359;-65
2023/04/04 05:42:56;;;;;;;3.90;3.10;;;;;;;-0.41;72.03;100728.64;218157;1257;139504;-65
2023/04/04 05:48:02;;;;;;;7.80;3.50;;;;;;;-0.08;71.79;100735.92;219349;1257;141345;-65
2023/04/04 05:53:06;;;;;;;5.70;2.50;;;;;;;-0.04;71.33;100733.41;218380;1257;139707;-65
2023/04/04 05:58:08;;;;;;;4.90;2.60;;;;;;;0.05;71.30;100730.99;218442;1257;139659;-65
2023/04/04 06:03:12;;;;;;;5.70;3.60;;;;;;;0.37;70.63;100729.21;218241;1257;139886;-65
2023/04/04 06:08:15;;;;;;;5.90;2.30;;;;;;;0.75;70.03;100726.86;217678;1257;139554;-65
2023/04/04 06:13:19;;;;;;;5.50;2.50;;;;;;;1.11;70.22;100728.91;218063;1257;139165;-65
2023/04/04 06:18:22;;;;;;;4.00;2.30;;;;;;;1.30;69.47;100729.83;218035;1258;140146;-65
2023/04/04 06:23:24;;;;;;;3.20;1.80;;;;;;;1.46;69.16;100727.04;218506;1257;142283;-66
2023/04/04 06:28:29;;;;;;;4.20;2.30;;;;;;;1.64;68.42;100723.65;217718;1260;139367;-66
2023/04/04 06:33:31;;;;;;;4.10;2.30;;;;;;;1.77;68.51;100722.21;218806;1257;139195;-67
2023/04/04 06:38:36;;;;;;;9.00;2.90;;;;;;;1.78;67.95;100721.40;217692;1260;139901;-65
2023/04/04 06:43:41;;;;;;;4.80;2.50;;;;;;;1.68;67.83;100723.02;219087;1257;138717;-66
2023/04/04 06:48:45;;;;;;;6.50;2.80;;;;;;;1.64;67.82;100720.11;217973;1257;139207;-65
2023/04/04 06:53:49;;;;;;;4.10;2.10;;;;;;;1.63;67.21;100712.54;218102;1257;141689;-64
2023/04/04 06:58:51;;;;;;;4.80;2.40;;;;;;;1.49;66.90;100710.31;218142;1257;140012;-65
2023/04/04 07:03:55;;;;;;;2.20;1.80;;;;;;;1.41;67.03;100710.40;218875;1257;139263;-65
2023/04/04 07:09:00;;;;;;;3.00;1.80;;;;;;;1.35;66.86;100716.41;219696;1256;139321;-65
2023/04/04 07:14:06;;;;;;;3.30;2.10;;;;;;;1.42;66.54;100711.14;220336;1257;139665;-66
2023/04/04 07:19:10;;;;;;;4.90;1.60;;;;;;;1.65;66.71;100710.45;219238;1257;140977;-65
2023/04/04 07:24:14;;;;;;;4.90;2.10;;;;;;;1.87;65.72;100709.12;219480;1257;138942;-66
2023/04/04 07:29:20;;;;;;;2.60;1.50;;;;;;;1.89;65.15;100704.53;219227;1256;139874;-66
2023/04/04 07:34:25;;;;;;;2.00;1.80;;;;;;;1.68;65.07;100710.48;218660;1257;138989;-66
2023/04/04 07:39:28;;;;;;;13.00;1.60;;;;;;;1.51;65.36;100709.34;217883;1257;141416;-66
2023/04/04 07:44:31;;;;;;;5.50;1.90;;;;;;;1.50;65.33;100710.67;218389;1257;139564;-66
2023/04/04 07:49:34;;;;;;;3.10;2.00;;;;;;;1.60;64.56;100707.88;218337;1256;138999;-66
2023/04/04 07:54:39;;;;;;;5.20;1.40;;;;;;;1.82;63.86;100707.10;219004;1257;139732;-65
2023/04/04 07:59:43;;;;;;;2.50;1.30;;;;;;;1.92;63.52;100702.96;217992;1256;138990;-65
2023/04/04 08:04:47;;;;;;;5.30;1.10;;;;;;;1.86;62.61;100704.48;218357;1257;139229;-66
2023/04/04 08:09:51;;;;;;;2.60;1.50;;;;;;;1.85;62.06;100703.48;218220;1260;138577;-66
2023/04/04 08:14:54;;;;;;;3.10;1.20;;;;;;;1.83;62.44;100702.49;218696;1256;139126;-66
2023/04/04 08:19:58;;;;;;;3.60;1.20;;;;;;;1.75;61.93;100705.34;218655;1257;140225;-66
2023/04/04 08:25:03;;;;;;;3.50;1.40;;;;;;;1.61;61.90;100706.55;217793;1256;138870;-66
2023/04/04 08:30:08;;;;;;;1.90;1.80;;;;;;;1.46;61.21;100700.92;217658;1260;138780;-65
2023/04/04 08:35:11;;;;;;;2.00;1.20;;;;;;;1.53;61.15;100700.87;217653;1260;138771;-66
2023/04/04 08:40:15;;;;;;;2.10;1.30;;;;;;;1.69;61.40;100698.30;218091;1257;139860;-65
2023/04/04 08:45:21;;;;;;;1.70;1.60;;;;;;;1.86;60.71;100691.14;217520;1256;139537;-66
2023/04/04 08:50:28;;;;;;;3.10;1.60;;;;;;;2.08;60.63;100685.77;219805;1257;140409;-67
2023/04/04 08:55:31;;;;;;;1.20;0.90;;;;;;;2.39;61.21;100683.41;220040;1257;141020;-66
2023/04/04 09:00:35;;;;;;;2.40;1.40;;;;;;;2.52;60.48;100684.98;219287;1257;139056;-68
2023/04/04 09:05:40;;;;;;;1.90;1.40;;;;;;;2.45;60.43;100689.30;220207;1256;138976;-68
2023/04/04 09:10:44;;;;;;;2.90;1.40;;;;;;;2.48;60.27;100687.25;218912;1256;138605;-66
2023/04/04 09:15:49;;;;;;;4.70;2.20;;;;;;;2.53;59.96;100682.61;219996;1257;140775;-67
2023/04/04 09:20:53;;;;;;;3.90;1.20;;;;;;;2.57;59.71;100680.81;218346;1256;140265;-67
2023/04/04 09:25:57;;;;;;;1.40;1.20;;;;;;;2.57;59.16;100689.04;218737;1256;138820;-65
2023/04/04 09:31:08;;;;;;;1.70;1.60;;;;;;;2.59;58.95;100680.66;217733;1255;140333;-65
2023/04/04 09:36:12;;;;;;;3.20;1.20;;;;;;;2.65;58.96;100683.98;218878;1256;138727;-66
2023/04/04 09:41:19;;;;;;;2.60;1.20;;;;;;;2.68;58.64;100677.20;218168;1256;139548;-67
2023/04/04 09:46:26;;;;;;;2.70;1.00;;;;;;;2.83;58.78;100676.63;218569;1257;140140;-67
2023/04/04 09:51:37;;;;;;;3.10;1.30;;;;;;;2.95;58.38;100681.80;218558;1257;141605;-67
2023/04/04 09:56:43;;;;;;;2.60;1.30;;;;;;;2.93;58.13;100678.04;217580;1257;138808;-68
2023/04/04 10:01:50;;;;;;;6.20;1.60;;;;;;;3.10;58.60;100677.11;218183;1256;138762;-67
2023/04/04 10:06:52;;;;;;;2.20;1.70;;;;;;;3.33;57.61;100675.29;217734;1260;138886;-67
2023/04/04 10:12:16;;;;;;;3.10;1.60;;;;;;;3.44;57.39;100674.34;218515;1256;139396;-67
2023/04/04 10:17:21;;;;;;;5.10;1.50;;;;;;;3.50;57.11;100670.69;217883;1256;139737;-68
2023/04/04 10:22:25;;;;;;;4.10;1.40;;;;;;;3.64;57.43;100677.23;220330;1256;139226;-68
2023/04/04 10:27:27;;;;;;;2.30;1.80;;;;;;;3.71;57.12;100671.31;220301;1256;139512;-68
2023/04/04 10:32:37;;;;;;;5.80;1.50;;;;;;;3.72;56.63;100674.70;220357;1256;140743;-69
2023/04/04 10:37:45;;;;;;;1.60;1.30;;;;;;;3.84;56.61;100670.54;220199;1256;139064;-68
2023/04/04 10:48:49;;;;;;;3.30;1.90;;;;;;;3.93;55.88;100664.39;215769;1295;636906;-67
2023/04/04 10:53:53;;;;;;;2.50;1.60;;;;;;;3.99;55.53;100666.99;217710;1268;138224;-67
2023/04/04 10:59:12;;;;;;;3.70;1.90;;;;;;;4.09;55.19;100665.05;218468;1267;429633;-67
2023/04/04 11:04:20;;;;;;;4.90;1.60;;;;;;;4.21;54.98;100660.17;219568;1265;138711;-67
2023/04/04 11:09:47;;;;;;;3.00;1.30;;;;;;;4.23;54.96;100660.71;219434;1265;138656;-68
2023/04/04 11:15:00;;;;;;;3.40;2.10;;;;;;;4.08;54.90;100663.18;216443;1267;138463;-67
2023/04/04 11:20:17;;;;;;;2.60;1.90;;;;;;;3.89;54.79;100662.75;217567;1265;139079;-67
2023/04/04 11:25:31;;;;;;;2.40;1.80;;;;;;;3.69;54.54;100657.71;218405;1265;137992;-68
2023/04/04 11:30:47;;;;;;;2.50;1.60;;;;;;;3.48;54.52;100656.98;217524;1265;138362;-67
2023/04/04 11:35:57;;;;;;;6.00;2.90;;;;;;;3.33;54.37;100653.17;216970;1266;138342;-67
2023/04/04 11:41:05;;;;;;;3.70;2.30;;;;;;;3.39;55.52;100654.84;217366;1265;139314;-67
2023/04/04 11:46:16;;;;;;;3.20;1.70;;;;;;;3.58;55.76;100650.16;216668;1264;138114;-67
2023/04/04 11:51:26;;;;;;;4.60;1.90;;;;;;;3.74;55.63;100641.35;217678;1263;139162;-67
2023/04/04 11:56:36;;;;;;;1.90;1.70;;;;;;;3.76;55.20;100639.20;216930;1263;138540;-67
2023/04/04 12:01:41;;;;;;;5.30;2.60;;;;;;;3.81;55.27;100635.70;217226;1266;138387;-67
2023/04/04 12:06:53;;;;;;;4.80;2.30;;;;;;;3.82;55.15;100633.09;217740;1263;138091;-67
2023/04/04 12:11:58;;;;;;;4.60;2.40;;;;;;;3.71;54.84;100635.67;218375;1263;139914;-67
2023/04/04 12:17:03;;;;;;;6.10;3.90;;;;;;;3.66;55.11;100629.54;216996;1263;138403;-67
2023/04/04 12:22:07;;;;;;;4.10;2.30;;;;;;;3.69;55.11;100626.85;217570;1263;138866;-68
2023/04/04 12:27:11;;;;;;;6.10;2.10;;;;;;;3.71;54.83;100624.77;216677;1263;138352;-68
2023/04/04 12:32:15;;;;;;;2.70;2.20;;;;;;;3.70;54.71;100620.16;216621;1264;139077;-68
2023/04/04 12:37:21;;;;;;;5.80;1.90;;;;;;;3.70;54.74;100615.17;217577;1266;138395;-68
2023/04/04 12:42:30;;;;;;;6.80;3.30;;;;;;;3.66;54.40;100616.19;217949;1264;138718;-67
2023/04/04 12:47:36;;;;;;;3.00;1.70;;;;;;;3.67;54.47;100616.01;216484;1267;138206;-67
2023/04/04 12:52:41;;;;;;;4.60;2.00;;;;;;;3.73;54.43;100618.04;216344;1267;138142;-67
2023/04/04 12:57:45;;;;;;;7.40;2.50;;;;;;;3.76;54.30;100614.94;218894;1262;139791;-68
2023/04/04 13:02:51;;;;;;;2.40;2.20;;;;;;;3.68;54.13;100613.30;219602;1263;138571;-68
2023/04/04 13:08:05;;;;;;;2.30;1.70;;;;;;;3.61;53.84;100611.10;219659;1263;138804;-67
2023/04/04 13:13:34;;;;;;;3.10;2.10;;;;;;;3.65;54.10;100607.17;216607;1263;139454;-69
2023/04/04 13:18:43;;;;;;;4.90;2.40;;;;;;;3.66;53.99;100602.23;217166;1266;138477;-68
2023/04/04 13:23:48;;;;;;;2.70;1.90;;;;;;;3.55;54.21;100602.12;217610;1264;138943;-68
2023/04/04 13:28:53;;;;;;;3.50;2.60;;;;;;;3.37;54.20;100605.30;217747;1264;138158;-66
2023/04/04 13:33:56;;;;;;;2.70;1.90;;;;;;;3.22;54.54;100608.98;217088;1263;139626;-68
2023/04/04 13:39:02;;;;;;;8.60;2.70;;;;;;;3.18;54.62;100604.83;216704;1263;140756;-68
2023/04/04 13:44:07;;;;;;;6.00;2.70;;;;;;;3.22;54.94;100601.70;216990;1266;138528;-69
2023/04/04 13:49:12;;;;;;;4.20;2.60;;;;;;;3.16;54.64;100598.14;218191;1257;138340;-66
2023/04/04 13:54:17;;;;;;;2.60;2.30;;;;;;;3.03;54.74;100599.03;218818;1259;138478;-67
2023/04/04 13:59:21;;;;;;;4.90;2.50;;;;;;;2.94;54.72;100592.95;217750;1256;138589;-67
2023/04/04 14:04:32;;;;;;;4.00;2.30;;;;;;;3.03;54.89;100590.48;217633;1256;138997;-69
2023/04/04 14:09:38;;;;;;;5.90;4.70;;;;;;;3.16;54.86;100594.28;218276;1257;138495;-67
2023/04/04 14:14:43;;;;;;;3.30;2.30;;;;;;;3.27;54.65;100578.67;217853;1259;139124;-67
2023/04/04 14:19:48;;;;;;;2.60;2.40;;;;;;;3.36;54.95;100576.73;218374;1256;138987;-67
2023/04/04 14:24:53;;;;;;;4.20;1.80;;;;;;;3.40;54.69;100573.50;217931;1255;139182;-69
2023/04/04 14:29:58;;;;;;;3.10;2.50;;;;;;;3.37;54.27;100568.73;218487;1257;138795;-70
2023/04/04 14:35:02;;;;;;;2.30;2.00;;;;;;;3.34;54.36;100564.50;218875;1255;138668;-69
2023/04/04 14:40:08;;;;;;;3.00;2.40;;;;;;;3.34;54.42;100564.08;218912;1259;139011;-72
2023/04/04 14:45:15;;;;;;;3.90;2.10;;;;;;;3.33;54.32;100560.48;219653;1256;138643;-67
2023/04/04 14:50:21;;;;;;;2.70;2.50;;;;;;;3.29;54.10;100559.80;219399;1255;138205;-66
2023/04/04 14:55:26;;;;;;;2.60;2.30;;;;;;;3.25;54.35;100553.38;220578;1256;139503;-70
2023/04/04 15:00:32;;;;;;;5.00;3.30;;;;;;;3.29;54.45;100550.05;220646;1259;139548;-68
2023/04/04 15:05:37;;;;;;;2.50;2.20;;;;;;;3.33;54.47;100552.52;220591;1254;139843;-69
2023/04/04 15:10:43;;;;;;;4.10;2.40;;;;;;;3.40;54.46;100549.29;220353;1257;138548;-68
2023/04/04 15:15:47;;;;;;;3.10;2.40;;;;;;;3.48;54.40;100545.81;219641;1256;139587;-69
2023/04/04 15:20:52;;;;;;;4.10;2.40;;;;;;;3.49;54.47;100543.92;218978;1259;138525;-68
2023/04/04 15:25:56;;;;;;;3.40;3.00;;;;;;;3.49;54.40;100543.73;218885;1257;162223;-68
2023/04/04 15:31:02;;;;;;;2.90;2.00;;;;;;;3.41;54.39;100545.52;218032;1257;138919;-67
2023/04/04 15:36:08;;;;;;;2.60;2.20;;;;;;;3.38;54.25;100546.23;217930;1259;139116;-67
2023/04/04 15:41:14;;;;;;;2.40;2.00;;;;;;;3.33;54.30;100545.90;218613;1255;138574;-68
2023/04/04 15:46:20;;;;;;;5.80;2.60;;;;;;;3.26;54.37;100543.30;217996;1259;138629;-67
2023/04/04 15:51:26;;;;;;;4.40;2.30;;;;;;;3.21;54.78;100542.08;218011;1257;139275;-67
2023/04/04 15:56:31;;;;;;;4.90;2.60;;;;;;;3.16;54.74;100539.52;217914;1259;140662;-67
2023/04/04 16:01:36;;;;;;;4.10;2.50;;;;;;;3.09;54.89;100537.81;218382;1257;140261;-67
2023/04/04 16:06:41;;;;;;;5.00;2.70;;;;;;;2.99;55.26;100543.90;218082;1256;139292;-66
2023/04/04 16:11:45;;;;;;;3.50;2.80;;;;;;;2.98;55.45;100543.92;218032;1259;139373;-67
2023/04/04 16:16:50;;;;;;;4.40;3.20;;;;;;;2.97;55.75;100540.34;218343;1256;138575;-66
2023/04/04 16:21:56;;;;;;;5.80;3.50;;;;;;;2.93;56.03;100538.95;218013;1259;140744;-66
2023/04/04 16:27:03;;;;;;;7.90;3.50;;;;;;;2.88;55.80;100534.05;219248;1255;138503;-69
2023/04/04 16:32:07;;;;;;;7.10;3.20;;;;;;;2.84;56.05;100531.05;218710;1259;139138;-67
2023/04/04 16:37:12;;;;;;;8.20;3.30;;;;;;;2.79;56.53;100527.92;220565;1255;139042;-69
2023/04/04 16:42:18;;;;;;;5.50;3.80;;;;;;;2.69;56.88;100523.90;220568;1256;139259;-69
2023/04/04 16:47:22;;;;;;;6.50;4.20;;;;;;;2.62;56.81;100527.77;220655;1256;139563;-67
2023/04/04 16:52:29;;;;;;;4.20;3.20;;;;;;;2.52;56.99;100525.58;220523;1256;139651;-71
2023/04/04 16:57:32;;;;;;;10.10;3.90;;;;;;;2.46;57.47;100523.71;220530;1256;138645;-70
2023/04/04 17:02:44;;;;;;;9.00;4.60;;;;;;;2.43;57.89;100523.84;220235;1257;139223;-68
2023/04/04 17:07:50;;;;;;;4.50;2.80;;;;;;;2.41;58.26;100519.92;219717;1257;139012;-67
2023/04/04 17:12:55;;;;;;;5.90;2.60;;;;;;;2.35;58.45;100521.50;218307;1257;138484;-66
2023/04/04 17:18:04;;;;;;;3.90;2.90;;;;;;;2.27;59.10;100519.08;217918;1257;138366;-65
2023/04/04 17:23:08;;;;;;;6.70;5.10;;;;;;;2.18;59.19;100516.98;218780;1259;139728;-66
2023/04/04 17:28:13;;;;;;;5.70;3.90;;;;;;;2.13;59.63;100516.42;218094;1259;139090;-66
2023/04/04 17:33:16;;;;;;;16.40;9.30;;;;;;;2.03;60.21;100511.31;218077;1257;139039;-65
2023/04/04 17:38:21;;;;;;;9.60;7.70;;;;;;;1.93;60.34;100510.77;218486;1259;139518;-64
2023/04/04 17:43:26;;;;;;;7.70;5.60;;;;;;;1.76;59.95;100506.58;218310;1257;138151;-66
2023/04/04 17:48:32;;;;;;;4.50;3.60;;;;;;;1.57;59.75;100509.60;218445;1258;140316;-66
2023/04/04 17:53:37;;;;;;;7.20;4.50;;;;;;;1.39;60.51;100516.90;217809;1257;138897;-67
2023/04/04 17:58:42;;;;;;;7.80;4.40;;;;;;;1.19;60.94;100518.70;217979;1255;138526;-67
2023/04/04 18:03:51;;;;;;;11.80;3.90;;;;;;;0.98;61.25;100521.21;218267;1257;138702;-67
2023/04/04 18:08:59;;;;;;;8.70;4.30;;;;;;;0.82;61.69;100521.56;217833;1257;138778;-67
2023/04/04 18:14:05;;;;;;;7.00;4.00;;;;;;;0.73;62.10;100526.86;217805;1256;139056;-67
2023/04/04 18:19:12;;;;;;;7.00;3.90;;;;;;;0.64;62.64;100524.60;218230;1259;139576;-65
2023/04/04 18:24:19;;;;;;;4.10;3.60;;;;;;;0.56;62.70;100526.34;218825;1257;138490;-65
2023/04/04 18:29:25;;;;;;;8.10;3.30;;;;;;;0.47;63.00;100524.55;219833;1259;139461;-68
2023/04/04 18:34:29;;;;;;;5.10;3.50;;;;;;;0.40;63.22;100525.59;220241;1257;138777;-69
2023/04/04 18:39:35;;;;;;;5.50;4.10;;;;;;;0.34;63.70;100528.95;219675;1257;139927;-68
2023/04/04 18:44:40;;;;;;;5.80;3.40;;;;;;;0.29;63.67;100529.40;220532;1256;140194;-68
2023/04/04 18:49:44;;;;;;;9.70;4.70;;;;;;;0.24;63.72;100533.42;220481;1256;139384;-68
2023/04/04 18:54:49;;;;;;;14.40;7.00;;;;;;;0.21;63.59;100532.89;219249;1259;140528;-66
2023/04/04 18:59:54;;;;;;;8.40;5.20;;;;;;;0.21;63.74;100526.02;217858;1259;138693;-65
2023/04/04 19:05:02;;;;;;;8.90;5.90;;;;;;;0.26;64.27;100528.92;218752;1257;139312;-66
2023/04/04 19:10:08;;;;;;;10.00;4.90;;;;;;;0.29;64.02;100527.41;218587;1259;138861;-66
2023/04/04 19:15:12;;;;;;;18.90;7.50;;;;;;;0.29;64.40;100526.16;217512;1257;138797;-66
2023/04/04 19:20:17;;;;;;;16.00;7.50;;;;;;;0.27;64.56;100531.04;219218;1259;139099;-66
2023/04/04 19:25:21;;;;;;;5.30;3.20;;;;;;;0.27;64.46;100529.85;217975;1259;139469;-68
2023/04/04 19:30:48;;;;;;;16.30;6.60;;;;;;;0.27;64.24;100532.58;217936;1257;139744;-67
2023/04/04 19:35:55;;;;;;;9.80;6.60;;;;;;;0.30;64.11;100535.70;217876;1257;138995;-64
2023/04/04 19:41:26;;;;;;;12.10;7.00;;;;;;;0.31;64.45;100533.41;218438;1257;138680;-65
2023/04/04 19:46:33;;;;;;;20.00;11.10;;;;;;;0.33;64.97;100532.70;217928;1257;138834;-67
2023/04/04 19:51:55;;;;;;;13.10;8.30;;;;;;;0.33;65.49;100534.70;217926;1254;138787;-71
2023/04/04 19:57:06;;;;;;;10.30;7.10;;;;;;;0.32;65.85;100524.93;218054;1257;138864;-66
2023/04/04 20:02:26;;;;;;;10.00;6.10;;;;;;;0.30;66.55;100519.02;218044;1260;139756;-64
2023/04/04 20:07:31;;;;;;;10.80;5.00;;;;;;;0.23;66.48;100522.34;218828;1259;139929;-66
2023/04/04 20:12:36;;;;;;;6.60;4.40;;;;;;;0.13;66.75;100522.79;217856;1257;139580;-65
2023/04/04 20:17:41;;;;;;;8.00;5.50;;;;;;;0.06;67.04;100519.98;218641;1257;140636;-63
2023/04/04 20:22:46;;;;;;;7.70;6.10;;;;;;;0.00;67.11;100518.80;218331;1258;138645;-63
2023/04/04 20:27:51;;;;;;;5.60;4.40;;;;;;;-0.08;67.75;100519.05;218804;1259;141408;-66
2023/04/04 20:32:57;;;;;;;10.30;4.30;;;;;;;-0.14;68.15;100510.21;219517;1256;139850;-65
2023/04/04 20:38:05;;;;;;;8.00;4.50;;;;;;;-0.16;68.52;100509.59;220600;1256;140525;-66
2023/04/04 20:43:11;;;;;;;7.80;4.60;;;;;;;-0.17;68.96;100509.84;220593;1257;140148;-67
2023/04/04 20:48:34;;;;;;;7.70;4.00;;;;;;;-0.15;69.19;100511.90;220644;1260;140214;-67
2023/04/04 20:53:39;;;;;;;8.30;4.70;;;;;;;-0.11;69.68;100515.55;218114;1260;139559;-64
2023/04/04 20:58:44;;;;;;;8.10;5.00;;;;;;;-0.07;69.30;100516.91;219265;1260;139452;-64
2023/04/04 21:03:50;;;;;;;18.60;7.60;;;;;;;-0.02;70.24;100526.50;218712;1259;152884;-64
2023/04/04 21:08:55;;;;;;;14.30;7.60;;;;;;;0.05;70.50;100532.82;218042;1260;139787;-65
2023/04/04 21:13:59;;;;;;;9.30;5.40;;;;;;;0.06;70.15;100526.98;217707;1259;141301;-65
2023/04/04 21:19:05;;;;;;;18.10;7.30;;;;;;;0.02;70.42;100518.70;219165;1260;139712;-67
2023/04/04 21:24:09;;;;;;;29.00;9.90;;;;;;;-0.12;70.55;100514.98;217994;1257;140418;-66
2023/04/04 21:29:22;;;;;;;15.10;7.00;;;;;;;-0.22;70.79;100511.90;218419;1257;140525;-67
2023/04/04 21:34:28;;;;;;;8.90;5.60;;;;;;;-0.24;71.32;100509.27;217861;1258;139923;-66
2023/04/04 21:39:35;;;;;;;10.90;6.70;;;;;;;-0.28;71.37;100514.77;218589;1260;140220;-66
2023/04/04 21:44:40;;;;;;;10.30;8.20;;;;;;;-0.27;71.68;100509.05;218657;1260;140387;-65
2023/04/04 21:49:46;;;;;;;10.40;6.90;;;;;;;-0.22;71.92;100506.08;218489;1259;139765;-66
2023/04/04 21:54:50;;;;;;;21.90;12.70;;;;;;;-0.17;72.22;100508.95;219559;1259;140346;-66
2023/04/04 21:59:54;;;;;;;27.30;14.50;;;;;;;-0.12;72.14;100505.19;218087;1257;139936;-63
2023/04/04 22:04:59;;;;;;;19.00;9.50;;;;;;;-0.08;72.20;100502.84;218658;1258;139834;-68
2023/04/04 22:10:07;;;;;;;21.60;9.90;;;;;;;-0.11;72.34;100492.16;219085;1260;140172;-66
2023/04/04 22:15:12;;;;;;;16.20;9.40;;;;;;;-0.19;72.13;100490.09;218105;1259;140028;-65
2023/04/04 22:20:17;;;;;;;16.10;9.50;;;;;;;-0.31;72.02;100493.34;220062;1257;140484;-65
2023/04/04 22:25:21;;;;;;;18.90;9.70;;;;;;;-0.39;72.42;100495.67;220655;1254;141428;-66
2023/04/04 22:30:26;;;;;;;17.30;9.70;;;;;;;-0.40;72.68;100491.57;220843;1254;140670;-66
2023/04/04 22:35:32;;;;;;;20.50;10.90;;;;;;;-0.47;72.50;100495.34;220781;1254;140940;-67
2023/04/04 22:40:38;;;;;;;28.00;12.00;;;;;;;-0.58;72.72;100498.53;220838;1254;140352;-67
2023/04/04 22:45:43;;;;;;;34.10;14.20;;;;;;;-0.68;72.51;100496.52;220628;1254;139856;-65
2023/04/04 22:50:48;;;;;;;37.50;16.00;;;;;;;-0.84;72.66;100494.92;220692;1256;140491;-66
2023/04/04 22:55:58;;;;;;;44.30;15.90;;;;;;;-0.98;72.51;100488.36;219045;1257;140257;-66
2023/04/04 23:01:03;;;;;;;30.40;14.60;;;;;;;-1.09;72.55;100484.45;219115;1254;747553;-65
2023/04/04 23:06:07;;;;;;;41.90;18.20;;;;;;;-1.19;72.96;100484.35;217952;1257;140915;-63
2023/04/04 23:11:11;;;;;;;34.50;14.20;;;;;;;-1.27;73.09;100480.94;219247;1256;140132;-65
2023/04/04 23:16:17;;;;;;;23.30;13.70;;;;;;;-1.32;73.23;100474.08;217954;1259;140049;-63
2023/04/04 23:21:23;;;;;;;39.60;16.20;;;;;;;-1.32;73.55;100477.39;218259;1258;140515;-66